createdAt,value
2023-01-28T00:05:46.003Z,5.09
2023-01-28T00:12:47.600Z,4.92
2023-01-28T00:19:49.294Z,4.93
2023-01-28T00:26:51.404Z,4.92
2023-01-28T00:33:53.269Z,4.76
2023-01-28T00:40:55.121Z,4.72
2023-01-28T00:47:58.461Z,4.67
2023-01-28T00:55:00.485Z,4.62
2023-01-28T01:02:12.469Z,4.58
2023-01-28T01:09:14.369Z,4.47
2023-01-28T01:16:19.333Z,4.46
2023-01-28T01:23:23.512Z,4.36
2023-01-28T01:30:25.602Z,4.39
2023-01-28T01:37:27.861Z,4.44
2023-01-28T01:45:00.932Z,4.56
2023-01-28T01:52:06.169Z,4.54
2023-01-28T01:59:12.771Z,4.54
2023-01-28T02:06:14.559Z,4.63
2023-01-28T02:13:17.945Z,4.63
2023-01-28T02:20:58.329Z,4.68
2023-01-28T02:28:23.900Z,4.73
2023-01-28T02:36:02.538Z,4.77
2023-01-28T02:43:04.607Z,4.71
2023-01-28T02:50:12.007Z,4.67
2023-01-28T02:57:27.207Z,4.78
2023-01-28T03:04:30.386Z,4.76
2023-01-28T03:11:52.720Z,4.74
2023-01-28T03:19:12.979Z,4.78
2023-01-28T03:26:33.408Z,4.80
2023-01-28T03:33:54.118Z,4.81
2023-01-28T03:40:57.471Z,4.79
2023-01-28T03:47:59.376Z,4.80
2023-01-28T03:55:01.574Z,4.87
2023-01-28T04:02:03.529Z,4.82
2023-01-28T04:09:06.008Z,4.89
2023-01-28T04:16:23.090Z,4.82
2023-01-28T04:23:24.884Z,4.83
2023-01-28T04:30:26.977Z,4.84
2023-01-28T04:37:43.763Z,4.91
2023-01-28T04:45:11.633Z,4.87
2023-01-28T04:52:33.634Z,5.07
2023-01-28T04:59:44.289Z,5.03
2023-01-28T05:06:47.079Z,5.11
2023-01-28T05:13:51.817Z,4.94
2023-01-28T05:20:55.018Z,5.03
2023-01-28T05:27:56.821Z,5.13
2023-01-28T05:34:58.552Z,5.17
2023-01-28T05:42:00.680Z,5.15
2023-01-28T05:49:03.177Z,5.18
2023-01-28T05:56:22.987Z,5.22
2023-01-28T06:03:24.839Z,5.28
2023-01-28T06:10:26.829Z,5.21
2023-01-28T06:17:29.655Z,5.16
2023-01-28T06:24:42.410Z,5.13
2023-01-28T06:31:44.200Z,5.25
2023-01-28T06:38:45.867Z,5.20
2023-01-28T06:45:47.519Z,5.33
2023-01-28T06:52:49.187Z,5.37
2023-01-28T06:59:50.860Z,5.18
2023-01-28T07:06:52.463Z,5.27
2023-01-28T07:13:54.079Z,5.22
2023-01-28T07:20:56.461Z,5.03
2023-01-28T07:28:00.655Z,5.30
2023-01-28T07:35:02.240Z,5.35
2023-01-28T07:42:03.970Z,5.32
2023-01-28T07:49:10.487Z,5.51
2023-01-28T07:56:12.027Z,5.49
2023-01-28T08:03:16.887Z,5.57
2023-01-28T08:10:18.833Z,5.58
2023-01-28T08:17:20.433Z,5.60
2023-01-28T08:24:22.234Z,5.66
2023-01-28T08:31:24.256Z,5.73
2023-01-28T08:38:25.903Z,5.78
2023-01-28T08:45:28.180Z,5.68
2023-01-28T08:52:29.901Z,5.80
2023-01-28T08:59:31.756Z,5.83
2023-01-28T09:06:33.436Z,5.97
2023-01-28T09:13:35.131Z,5.98
2023-01-28T09:20:37.094Z,5.88
2023-01-28T09:27:38.826Z,6.14
2023-01-28T09:34:40.553Z,6.14
2023-01-28T09:41:51.327Z,6.20
2023-01-28T09:48:52.945Z,6.16
2023-01-28T09:56:06.222Z,6.24
2023-01-28T10:03:29.525Z,6.14
2023-01-28T10:10:38.874Z,6.16
2023-01-28T10:17:44.081Z,6.21
2023-01-28T10:24:51.395Z,6.07
2023-01-28T10:32:04.171Z,6.24
2023-01-28T10:39:06.741Z,6.31
2023-01-28T10:46:20.173Z,6.28
2023-01-28T10:53:36.964Z,6.40
2023-01-28T11:00:38.634Z,6.64
2023-01-28T11:07:40.275Z,6.44
2023-01-28T11:14:50.781Z,6.79
2023-01-28T11:21:54.082Z,6.71
2023-01-28T11:28:55.673Z,6.71
2023-01-28T11:36:18.534Z,6.86
2023-01-28T11:43:24.871Z,6.75
2023-01-28T11:50:35.582Z,6.79
2023-01-28T11:57:46.991Z,6.53
2023-01-28T12:04:48.554Z,6.59
2023-01-28T12:12:13.241Z,6.53
2023-01-28T12:19:22.375Z,6.95
2023-01-28T12:26:48.610Z,6.90
2023-01-28T12:33:56.212Z,6.87
2023-01-28T12:41:07.887Z,6.72
2023-01-28T12:48:27.466Z,6.72
2023-01-28T12:55:40.044Z,6.86
2023-01-28T13:02:43.186Z,6.80
2023-01-28T13:09:59.019Z,6.75
2023-01-28T13:17:13.452Z,6.79
2023-01-28T13:24:15.366Z,6.66
2023-01-28T13:31:18.645Z,6.64
2023-01-28T13:38:20.349Z,6.67
2023-01-28T13:45:23.183Z,6.75
2023-01-28T13:52:29.116Z,6.78
2023-01-28T13:59:59.970Z,6.77
2023-01-28T14:07:01.440Z,6.86
2023-01-28T14:14:23.251Z,6.97
2023-01-28T14:21:26.427Z,6.63
2023-01-28T14:28:52.388Z,6.94
2023-01-28T14:35:54.053Z,6.90
2023-01-28T14:42:55.771Z,6.84
2023-01-28T14:50:03.568Z,6.86
2023-01-28T14:57:26.114Z,6.61
2023-01-28T15:04:32.305Z,6.63
2023-01-28T15:11:33.988Z,6.47
2023-01-28T15:18:37.334Z,6.39
2023-01-28T15:25:38.891Z,6.59
2023-01-28T15:32:40.490Z,6.51
2023-01-28T15:39:42.117Z,6.57
2023-01-28T15:46:43.726Z,6.52
2023-01-28T15:53:46.599Z,6.45
2023-01-28T16:00:48.471Z,6.48
2023-01-28T16:07:50.218Z,6.39
2023-01-28T16:14:54.491Z,6.37
2023-01-28T16:21:56.116Z,6.33
2023-01-28T16:28:59.137Z,6.22
2023-01-28T16:36:08.944Z,6.29
2023-01-28T16:43:11.959Z,6.35
2023-01-28T16:50:14.119Z,6.35
2023-01-28T16:57:16.588Z,6.40
2023-01-28T17:04:18.303Z,6.21
2023-01-28T17:11:19.957Z,6.09
2023-01-28T17:18:21.655Z,6.01
2023-01-28T17:32:24.934Z,6.13
2023-01-28T17:39:26.541Z,6.22
2023-01-28T17:46:28.357Z,6.25
2023-01-28T17:53:30.498Z,6.21
2023-01-28T18:00:32.313Z,6.22
2023-01-28T18:07:33.965Z,6.04
2023-01-28T18:14:35.728Z,6.05
2023-01-28T18:21:54.159Z,5.80
2023-01-28T18:28:57.831Z,5.83
2023-01-28T18:36:00.677Z,5.72
2023-01-28T18:43:02.269Z,5.75
2023-01-28T18:50:05.385Z,5.58
2023-01-28T18:57:07.197Z,5.62
2023-01-28T19:04:08.961Z,5.52
2023-01-28T19:11:10.546Z,5.55
2023-01-28T19:18:12.312Z,5.60
2023-01-28T19:25:14.377Z,5.56
2023-01-28T19:32:17.013Z,5.68
2023-01-28T19:39:18.669Z,5.68
2023-01-28T19:46:20.373Z,5.65
2023-01-28T19:53:22.016Z,5.54
2023-01-28T20:00:23.668Z,5.47
2023-01-28T20:07:25.265Z,5.38
2023-01-28T20:14:27.895Z,5.61
2023-01-28T20:21:29.882Z,5.59
2023-01-28T20:28:31.583Z,5.40
2023-01-28T20:35:33.411Z,5.50
2023-01-28T20:42:35.093Z,5.42
2023-01-28T20:49:36.783Z,5.35
2023-01-28T20:56:38.402Z,5.36
2023-01-28T21:03:39.967Z,5.20
2023-01-28T21:10:42.319Z,5.41
2023-01-28T21:17:43.970Z,5.33
2023-01-28T21:24:48.063Z,5.37
2023-01-28T21:31:49.672Z,5.14
2023-01-28T21:38:56.348Z,5.16
2023-01-28T21:46:01.523Z,5.05
2023-01-28T21:53:03.188Z,5.02
2023-01-28T22:00:05.746Z,4.80
2023-01-28T22:07:17.085Z,4.90
2023-01-28T22:14:19.016Z,4.84
2023-01-28T22:21:20.693Z,4.78
2023-01-28T22:28:22.953Z,4.99
2023-01-28T22:35:24.562Z,4.74
2023-01-28T22:42:26.269Z,4.80
2023-01-28T22:49:27.894Z,4.82
2023-01-28T22:56:30.459Z,4.88
2023-01-28T23:03:32.290Z,4.80
2023-01-28T23:10:34.089Z,5.01
2023-01-28T23:17:54.410Z,4.89
2023-01-28T23:24:56.134Z,5.08
2023-01-28T23:32:06.409Z,5.06
2023-01-28T23:39:08.562Z,5.08
2023-01-28T23:46:10.549Z,5.03
2023-01-28T23:53:14.402Z,5.04
